Airfield :
LOGIN :

Register | Disclaimer

   EN    FR    IT 

 










Legend :    VFR   Marginal VFR   IFR   Intensive IFR   Very Intensive IFR
Visi :
Ceiling :
>= 8 km
>= 3000ft
5 to 8 km
1000 to 3000 ft
1500m to 5 km
500 to 1000 ft
800 to 1500m
200 to 500 ft
< 800m
< 200 ft
Symbols :   Thunderstorms  Fog  Heavy snow  Heavy precipitations  Wind > 20 kt
SIGMETs :     Misc.  Thunderstorms  Icing  Turbulence  Mountain Waves  Volcanic Ashes







- Airport Elevation : 1906 ft
- IATA code : INN


LOWI - Innsbruck

CURRENT METAR :
  • 221950Z 07009KT 9999 FEW020 SCT027 BKN045 M02/M06 Q1012 R08/19//95 NOSIG

EXPIRED METARs :
  • 221920Z 08006KT 050V120 9999 FEW020 SCT027 BKN045 M02/M06 Q1012 R08/19//95 NOSIG
  • 221850Z 09009KT 9999 FEW025 BKN045 M01/M06 Q1012 R08/19//95 NOSIG
  • 221820Z 08008KT 050V120 9999 FEW025 BKN048 M01/M06 Q1012 R08/19//95 NOSIG
  • 221750Z 09008KT 050V130 9999 FEW025 BKN048 M01/M06 Q1011 R08/19//95 NOSIG
  • 221720Z 07008KT 040V110 9999 FEW035 BKN048 M01/M06 Q1011 R08/19//95 NOSIG

TAF TAF LOWI
Valid from the 22 at 18:00 until the 23 at 18:00 UTC


221715Z 2218/2318 07007KT 9999 FEW020 BKN040 TX02/2314Z TNM04/2305Z
BECMG 2309/2311 FEW030 BKN300
No reported NOTAMs for that airfield.



MET'MAP, your aeronautical weather chart ! - Copyright ORBIFLY December 2007 - Disclaimer

ORBIFLY MET'MAP TEAM :

Programming & Development : Alexandra Zaïnal
Concept & Development : Baudouin d'Aumeries
Co-Development & Prog : Marc-Olivier Méhu
Technical & hardware support : Manuel Goepfert

Contact : metmap@orbifly.com




SOURCES & CREDITS :

   NOAA